Time;durP1;ratioP1;P1;durP2;ratioP2;P2;SDS_P1;SDS_P2;PMS_P1;PMS_P2;Temp;Humidity;BMP_temperature;BMP_pressure;BME280_temperature;BME280_humidity;BME280_pressure;Samples;Min_cycle;Max_cycle;Signal;HPM_P1;HPM_P2
2021/11/24 00:00:19;;;;;;;28.60;14.18;;;7.40;99.90;;;;;;5079889;28;20025;-73
2021/11/24 00:02:46;;;;;;;22.70;14.60;;;7.50;99.90;;;;;;5088717;28;20028;-73
2021/11/24 00:05:12;;;;;;;22.92;13.85;;;7.40;99.90;;;;;;5069116;28;20473;-74
2021/11/24 00:07:41;;;;;;;23.67;14.10;;;7.40;99.90;;;;;;5078354;28;20032;-73
2021/11/24 00:10:09;;;;;;;21.58;12.02;;;7.40;99.90;;;;;;5091605;28;20482;-73
2021/11/24 00:12:35;;;;;;;19.58;12.70;;;7.40;99.90;;;;;;5077868;28;20032;-73
2021/11/24 00:15:02;;;;;;;23.05;12.55;;;7.40;99.90;;;;;;5075671;28;20032;-73
2021/11/24 00:17:28;;;;;;;19.13;12.70;;;7.30;99.90;;;;;;5083302;28;20020;-73
2021/11/24 00:19:54;;;;;;;20.10;12.15;;;7.30;99.90;;;;;;5088367;28;20043;-74
2021/11/24 00:22:19;;;;;;;19.98;12.40;;;7.30;99.90;;;;;;5084542;28;20089;-73
2021/11/24 00:24:45;;;;;;;18.17;11.90;;;7.30;99.90;;;;;;5074844;28;20027;-74
2021/11/24 00:27:11;;;;;;;19.45;12.88;;;7.30;99.90;;;;;;5082626;28;20023;-73
2021/11/24 00:29:37;;;;;;;17.23;11.05;;;7.20;99.90;;;;;;5082826;28;20023;-73
2021/11/24 00:32:03;;;;;;;22.27;11.23;;;7.20;99.90;;;;;;5092648;28;20035;-73
2021/11/24 00:34:29;;;;;;;15.70;10.82;;;7.20;99.90;;;;;;5088560;28;20035;-74
2021/11/24 00:36:55;;;;;;;17.10;10.43;;;7.20;99.90;;;;;;5093152;28;20035;-73
2021/11/24 00:39:20;;;;;;;19.27;11.57;;;7.20;99.90;;;;;;5082113;28;20035;-73
2021/11/24 00:41:46;;;;;;;15.48;10.25;;;7.20;99.90;;;;;;5090734;28;20428;-74
2021/11/24 00:44:12;;;;;;;18.00;10.15;;;7.20;99.90;;;;;;5088714;28;20100;-73
2021/11/24 00:46:39;;;;;;;18.33;11.45;;;7.20;99.90;;;;;;5074387;28;20077;-73
2021/11/24 00:49:05;;;;;;;16.17;10.88;;;7.20;99.90;;;;;;5079018;28;20486;-73
2021/11/24 00:51:31;;;;;;;16.95;10.23;;;7.20;99.90;;;;;;5079469;28;20035;-74
2021/11/24 00:53:57;;;;;;;20.30;10.90;;;7.20;99.90;;;;;;5069315;28;20021;-73
2021/11/24 00:56:23;;;;;;;18.50;11.85;;;7.20;99.90;;;;;;5088849;28;20028;-73
2021/11/24 00:58:49;;;;;;;22.23;12.52;;;7.20;99.90;;;;;;5086523;28;20028;-75
2021/11/24 01:01:16;;;;;;;20.15;11.18;;;7.20;99.90;;;;;;5077250;28;20045;-73
2021/11/24 01:03:41;;;;;;;17.63;10.57;;;7.20;99.90;;;;;;5080071;28;20037;-73
2021/11/24 01:06:07;;;;;;;19.02;11.63;;;7.20;99.90;;;;;;5075599;28;20490;-73
2021/11/24 01:08:33;;;;;;;17.52;11.07;;;7.30;99.90;;;;;;5057414;28;20024;-74
2021/11/24 01:10:59;;;;;;;16.65;10.23;;;7.30;99.90;;;;;;5075290;28;20469;-73
2021/11/24 01:13:25;;;;;;;16.92;10.63;;;7.30;99.90;;;;;;5091068;28;20039;-73
2021/11/24 01:15:51;;;;;;;16.73;11.43;;;7.30;99.90;;;;;;5076641;28;20024;-74
2021/11/24 01:18:17;;;;;;;22.90;11.55;;;7.30;99.90;;;;;;5079670;28;20058;-73
2021/11/24 01:20:46;;;;;;;17.00;10.52;;;7.30;99.90;;;;;;5084485;28;20035;-74
2021/11/24 01:23:13;;;;;;;16.80;9.10;;;7.40;99.90;;;;;;5082897;28;20051;-74
2021/11/24 01:25:39;;;;;;;19.90;10.55;;;7.40;99.90;;;;;;5090695;28;20390;-74
2021/11/24 01:28:05;;;;;;;17.50;9.85;;;7.40;99.90;;;;;;5087025;28;20397;-74
2021/11/24 01:30:32;;;;;;;16.45;10.77;;;7.40;99.90;;;;;;5082597;28;20043;-73
2021/11/24 01:32:58;;;;;;;18.30;11.00;;;7.40;99.90;;;;;;5056416;28;20025;-74
2021/11/24 01:35:23;;;;;;;17.52;11.02;;;7.30;99.90;;;;;;5082819;28;20046;-73
2021/11/24 01:37:49;;;;;;;19.50;11.80;;;7.40;99.90;;;;;;5083966;28;20511;-74
2021/11/24 01:40:15;;;;;;;19.27;10.95;;;7.40;99.90;;;;;;5063591;28;20513;-71
2021/11/24 01:42:45;;;;;;;15.65;10.50;;;7.30;99.90;;;;;;5080142;28;20032;-74
2021/11/24 01:45:16;;;;;;;18.35;10.02;;;7.30;99.90;;;;;;5077119;28;20024;-72
2021/11/24 01:47:42;;;;;;;18.63;10.43;;;7.40;99.90;;;;;;5068144;28;20034;-74
2021/11/24 01:50:08;;;;;;;13.73;9.35;;;7.40;99.90;;;;;;5074916;28;20508;-72
2021/11/24 01:52:34;;;;;;;13.90;9.73;;;7.40;99.90;;;;;;5080872;28;20028;-72
2021/11/24 01:55:01;;;;;;;14.00;10.13;;;7.50;99.90;;;;;;5079827;28;20528;-72
2021/11/24 01:57:29;;;;;;;14.23;8.95;;;7.50;99.90;;;;;;5073684;28;20025;-72
2021/11/24 01:59:56;;;;;;;16.48;10.32;;;7.40;99.90;;;;;;5079474;28;20024;-72
2021/11/24 02:02:23;;;;;;;15.48;9.63;;;7.50;99.90;;;;;;5081027;28;20110;-72
2021/11/24 02:04:49;;;;;;;13.02;9.15;;;7.50;99.90;;;;;;5081025;28;20478;-72
2021/11/24 02:07:15;;;;;;;18.33;10.07;;;7.50;99.90;;;;;;5085064;28;20065;-73
2021/11/24 02:09:45;;;;;;;13.95;9.40;;;7.50;99.90;;;;;;5088823;28;20028;-72
2021/11/24 02:12:13;;;;;;;22.13;11.80;;;7.50;99.90;;;;;;5085653;28;20032;-73
2021/11/24 02:14:39;;;;;;;16.45;11.38;;;7.50;99.90;;;;;;5086095;28;20020;-72
2021/11/24 02:17:05;;;;;;;20.88;11.82;;;7.50;99.90;;;;;;5089833;28;20028;-72
2021/11/24 02:19:33;;;;;;;18.25;10.77;;;7.50;99.90;;;;;;5084043;28;20027;-73
2021/11/24 02:22:00;;;;;;;18.35;10.93;;;7.50;99.90;;;;;;5083945;28;20393;-72
2021/11/24 02:24:32;;;;;;;18.55;11.45;;;7.50;99.90;;;;;;5063148;28;20023;-72
2021/11/24 02:27:00;;;;;;;18.38;11.77;;;7.50;99.90;;;;;;5085551;28;20078;-72
2021/11/24 02:29:26;;;;;;;15.68;9.80;;;7.50;99.90;;;;;;5086900;28;20024;-72
2021/11/24 02:31:59;;;;;;;15.57;10.40;;;7.50;99.90;;;;;;5074376;28;20027;-73
2021/11/24 02:34:26;;;;;;;17.08;10.98;;;7.50;99.90;;;;;;5086466;28;20028;-74
2021/11/24 02:36:52;;;;;;;15.80;10.07;;;7.50;99.90;;;;;;5082490;28;20407;-72
2021/11/24 02:39:18;;;;;;;17.15;10.15;;;7.50;99.90;;;;;;5088748;28;20115;-72
2021/11/24 02:41:44;;;;;;;19.13;10.85;;;7.50;99.90;;;;;;5083263;28;20047;-75
2021/11/24 02:44:14;;;;;;;17.00;10.77;;;7.60;99.90;;;;;;5066719;28;20032;-72
2021/11/24 02:46:39;;;;;;;16.88;11.15;;;7.50;99.90;;;;;;5086948;28;20051;-73
2021/11/24 02:49:05;;;;;;;16.58;9.77;;;7.50;99.90;;;;;;5066459;28;20495;-72
2021/11/24 02:51:31;;;;;;;15.40;10.27;;;7.50;99.90;;;;;;5089536;28;20555;-73
2021/11/24 02:53:57;;;;;;;17.67;10.95;;;7.50;99.90;;;;;;5088005;28;20031;-73
2021/11/24 02:56:22;;;;;;;18.15;11.20;;;7.50;99.90;;;;;;5089640;28;20043;-73
2021/11/24 02:58:48;;;;;;;17.02;11.10;;;7.50;99.90;;;;;;5083398;28;20032;-73
2021/11/24 03:01:14;;;;;;;22.27;12.05;;;7.40;99.90;;;;;;5084492;28;20081;-73
2021/11/24 03:03:40;;;;;;;18.27;11.43;;;7.40;99.90;;;;;;5076486;28;20370;-73
2021/11/24 03:06:05;;;;;;;19.98;11.85;;;7.40;99.90;;;;;;5077602;28;20021;-73
2021/11/24 03:08:31;;;;;;;14.82;9.82;;;7.40;99.90;;;;;;5080009;28;20387;-73
2021/11/24 03:10:57;;;;;;;15.05;9.93;;;7.40;99.90;;;;;;5087484;28;20028;-73
2021/11/24 03:13:23;;;;;;;14.45;9.15;;;7.40;99.90;;;;;;5084050;28;20024;-73
2021/11/24 03:15:48;;;;;;;11.50;8.13;;;7.40;99.90;;;;;;5085868;28;20017;-73
2021/11/24 03:18:14;;;;;;;12.30;8.45;;;7.50;99.90;;;;;;5058016;28;20028;-72
2021/11/24 03:20:40;;;;;;;10.60;7.97;;;7.50;99.90;;;;;;5082924;28;20058;-73
2021/11/24 03:23:07;;;;;;;13.30;8.50;;;7.50;99.90;;;;;;5084155;28;20129;-72
2021/11/24 03:25:33;;;;;;;9.25;6.75;;;7.50;99.90;;;;;;5073763;28;20028;-72
2021/11/24 03:27:59;;;;;;;11.32;7.90;;;7.50;99.90;;;;;;5084319;28;20024;-73
2021/11/24 03:30:28;;;;;;;11.63;8.35;;;7.50;99.90;;;;;;5084269;28;20088;-72
2021/11/24 03:32:55;;;;;;;13.30;8.55;;;7.50;99.90;;;;;;5087249;28;20025;-73
2021/11/24 03:35:23;;;;;;;12.65;8.15;;;7.40;99.90;;;;;;5079954;28;20502;-72
2021/11/24 03:37:52;;;;;;;14.70;8.90;;;7.40;99.90;;;;;;5062229;28;20042;-72
2021/11/24 03:40:19;;;;;;;11.73;7.88;;;7.40;99.90;;;;;;5069385;28;20454;-72
2021/11/24 03:42:47;;;;;;;13.98;9.90;;;7.40;99.90;;;;;;5094199;28;20043;-72
2021/11/24 03:45:17;;;;;;;15.30;9.82;;;7.50;99.90;;;;;;5082403;28;20034;-72
2021/11/24 03:47:44;;;;;;;14.65;10.38;;;7.50;99.90;;;;;;5066377;28;20116;-73
2021/11/24 03:50:10;;;;;;;15.30;10.60;;;7.50;99.90;;;;;;5083844;28;20024;-72
2021/11/24 03:52:36;;;;;;;15.57;10.93;;;7.50;99.90;;;;;;5087823;28;20474;-74
2021/11/24 03:55:04;;;;;;;15.38;10.55;;;7.50;99.90;;;;;;5060660;28;20028;-73
2021/11/24 03:57:30;;;;;;;18.58;11.63;;;7.50;99.90;;;;;;5072388;28;20032;-73
2021/11/24 03:59:56;;;;;;;15.68;10.30;;;7.50;99.90;;;;;;5067300;28;20390;-73
2021/11/24 04:02:21;;;;;;;15.25;9.55;;;7.50;99.90;;;;;;5092553;28;20063;-73
2021/11/24 04:04:47;;;;;;;15.18;9.75;;;7.50;99.90;;;;;;5080897;28;20135;-73
2021/11/24 04:07:13;;;;;;;16.75;9.52;;;7.50;99.90;;;;;;5085768;28;20069;-72
2021/11/24 04:09:39;;;;;;;15.07;9.90;;;7.60;99.90;;;;;;5069041;28;20038;-73
2021/11/24 04:12:06;;;;;;;13.07;9.27;;;7.60;99.90;;;;;;5090600;28;20028;-73
2021/11/24 04:14:32;;;;;;;12.93;8.48;;;7.60;99.90;;;;;;5064719;28;20083;-73
2021/11/24 04:16:57;;;;;;;13.13;9.18;;;7.60;99.90;;;;;;5075250;28;20439;-73
2021/11/24 04:19:23;;;;;;;11.10;8.15;;;7.60;99.90;;;;;;5084936;28;20104;-73
2021/11/24 04:21:49;;;;;;;16.35;10.23;;;7.60;99.90;;;;;;5089102;28;20024;-73
2021/11/24 04:24:15;;;;;;;15.95;10.23;;;7.50;99.90;;;;;;5076132;28;20028;-73
2021/11/24 04:26:41;;;;;;;13.65;9.75;;;7.60;99.90;;;;;;5079713;28;20035;-73
2021/11/24 04:29:06;;;;;;;17.15;10.70;;;7.50;99.90;;;;;;5089628;28;20098;-74
2021/11/24 04:31:32;;;;;;;14.60;9.68;;;7.50;99.90;;;;;;5085154;28;20035;-72
2021/11/24 04:33:58;;;;;;;12.40;9.20;;;7.50;99.90;;;;;;5079701;28;20501;-73
2021/11/24 04:36:24;;;;;;;17.50;12.23;;;7.50;99.90;;;;;;5076345;28;20024;-72
2021/11/24 04:38:49;;;;;;;17.33;9.88;;;7.50;99.90;;;;;;5077491;28;20447;-73
2021/11/24 04:41:15;;;;;;;16.52;11.30;;;7.60;99.90;;;;;;5084060;28;20394;-73
2021/11/24 04:43:47;;;;;;;19.92;10.30;;;7.60;99.90;;;;;;5084131;28;20099;-73
2021/11/24 04:46:14;;;;;;;17.83;11.45;;;7.50;99.90;;;;;;5075004;28;20021;-72
2021/11/24 04:48:40;;;;;;;15.30;10.93;;;7.60;99.90;;;;;;5085672;28;20104;-73
2021/11/24 04:51:05;;;;;;;16.63;11.55;;;7.60;99.90;;;;;;5088292;28;20099;-73
2021/11/24 04:53:32;;;;;;;16.17;11.43;;;7.60;99.90;;;;;;5083775;28;20028;-73
2021/11/24 04:55:57;;;;;;;16.75;11.50;;;7.60;99.90;;;;;;5086070;28;20039;-72
2021/11/24 04:58:23;;;;;;;15.25;10.80;;;7.60;99.90;;;;;;5080118;28;20390;-73
2021/11/24 05:00:49;;;;;;;16.00;11.10;;;7.60;99.90;;;;;;5081050;28;20548;-73
2021/11/24 05:03:16;;;;;;;15.40;10.45;;;7.60;99.90;;;;;;5084518;28;20029;-73
2021/11/24 05:05:42;;;;;;;16.23;10.50;;;7.60;99.90;;;;;;5084995;28;20107;-73
2021/11/24 05:08:08;;;;;;;15.15;10.70;;;7.60;99.90;;;;;;5084566;28;20020;-73
2021/11/24 05:10:34;;;;;;;14.02;8.93;;;7.60;99.90;;;;;;5065503;28;20032;-73
2021/11/24 05:13:00;;;;;;;15.15;9.52;;;7.60;99.90;;;;;;5085419;28;20024;-73
2021/11/24 05:15:31;;;;;;;12.75;8.80;;;7.50;99.90;;;;;;5072296;28;20056;-72
2021/11/24 05:18:03;;;;;;;13.00;8.60;;;7.50;99.90;;;;;;5078411;28;20028;-73
2021/11/24 05:20:30;;;;;;;13.23;8.93;;;7.50;99.90;;;;;;5078052;28;20073;-73
2021/11/24 05:22:59;;;;;;;13.27;9.07;;;7.50;99.90;;;;;;5074474;28;20033;-72
2021/11/24 05:25:26;;;;;;;16.73;10.43;;;7.50;99.90;;;;;;5075029;28;20024;-73
2021/11/24 05:27:52;;;;;;;15.98;10.40;;;7.50;99.90;;;;;;5062337;28;20428;-72
2021/11/24 05:30:18;;;;;;;17.83;10.20;;;7.50;99.90;;;;;;5083532;28;20082;-73
2021/11/24 05:32:44;;;;;;;15.85;10.05;;;7.50;99.90;;;;;;5073927;28;20035;-72
2021/11/24 05:35:10;;;;;;;15.18;9.88;;;7.50;99.90;;;;;;5090347;28;20028;-73
2021/11/24 05:37:36;;;;;;;15.57;10.40;;;7.50;99.90;;;;;;5083869;28;20095;-73
2021/11/24 05:40:03;;;;;;;14.20;10.10;;;7.50;99.90;;;;;;5083331;28;20067;-73
2021/11/24 05:42:29;;;;;;;13.88;9.75;;;7.50;99.90;;;;;;5077055;28;20048;-72
2021/11/24 05:45:12;;;;;;;14.73;10.07;;;7.50;99.90;;;;;;5085708;28;20497;-72
2021/11/24 05:47:54;;;;;;;16.98;11.20;;;7.50;99.90;;;;;;5069964;28;20028;-72
2021/11/24 05:50:21;;;;;;;15.18;10.02;;;7.50;99.90;;;;;;5083054;28;20436;-72
2021/11/24 05:52:48;;;;;;;16.63;10.85;;;7.50;99.90;;;;;;5082188;28;20111;-74
2021/11/24 05:55:14;;;;;;;17.33;12.00;;;7.50;99.90;;;;;;5090095;28;20115;-72
2021/11/24 05:57:40;;;;;;;18.52;11.52;;;7.50;99.90;;;;;;5086973;28;20033;-72
2021/11/24 06:00:07;;;;;;;17.02;10.70;;;7.50;99.90;;;;;;5082254;28;20024;-73
2021/11/24 06:02:33;;;;;;;16.85;10.70;;;7.50;99.90;;;;;;5073565;28;20668;-73
2021/11/24 06:04:59;;;;;;;14.60;10.60;;;7.50;99.90;;;;;;5073339;28;20055;-73
2021/11/24 06:07:24;;;;;;;14.65;10.38;;;7.50;99.90;;;;;;5082564;28;20451;-73
2021/11/24 06:09:50;;;;;;;16.63;10.80;;;7.60;99.90;;;;;;5082491;28;20397;-74
2021/11/24 06:12:16;;;;;;;14.40;10.32;;;7.60;99.90;;;;;;5086335;28;20043;-73
2021/11/24 06:14:43;;;;;;;18.63;12.40;;;7.60;99.90;;;;;;5077223;28;20031;-73
2021/11/24 06:17:10;;;;;;;17.25;11.48;;;7.70;99.90;;;;;;5064673;28;20032;-74
2021/11/24 06:19:36;;;;;;;20.00;12.45;;;7.70;99.90;;;;;;5087602;28;20031;-73
2021/11/24 06:22:03;;;;;;;15.63;10.32;;;7.60;99.90;;;;;;5085166;28;20013;-73
2021/11/24 06:24:29;;;;;;;17.98;10.82;;;7.60;99.90;;;;;;5074412;28;20047;-74
2021/11/24 06:26:55;;;;;;;16.50;11.27;;;7.70;99.90;;;;;;5086176;28;20028;-73
2021/11/24 06:29:20;;;;;;;16.83;11.52;;;7.70;99.90;;;;;;5088471;28;20039;-73
2021/11/24 06:31:46;;;;;;;17.00;11.48;;;7.60;99.90;;;;;;5094647;28;20028;-74
2021/11/24 06:34:12;;;;;;;14.88;10.45;;;7.60;99.90;;;;;;5089976;28;20060;-73
2021/11/24 06:36:38;;;;;;;15.63;10.40;;;7.60;99.90;;;;;;5083187;28;20044;-73
2021/11/24 06:39:04;;;;;;;15.25;10.50;;;7.50;99.90;;;;;;5083453;28;20032;-74
2021/11/24 06:41:29;;;;;;;14.30;9.40;;;7.50;99.90;;;;;;5066659;28;20027;-73
2021/11/24 06:43:55;;;;;;;16.00;9.45;;;7.50;99.90;;;;;;5084135;28;20109;-71
2021/11/24 06:46:21;;;;;;;12.77;9.13;;;7.50;99.90;;;;;;5083481;28;20078;-73
2021/11/24 06:48:46;;;;;;;16.52;10.35;;;7.50;99.90;;;;;;5083296;28;20032;-73
2021/11/24 06:51:12;;;;;;;16.08;10.27;;;7.50;99.90;;;;;;5083898;28;20043;-73
2021/11/24 06:53:38;;;;;;;16.23;11.30;;;7.50;99.90;;;;;;5081345;28;20040;-73
2021/11/24 06:56:04;;;;;;;16.63;10.82;;;7.50;99.90;;;;;;5083578;28;20033;-74
2021/11/24 06:58:30;;;;;;;19.10;12.00;;;7.50;99.90;;;;;;5081141;28;20112;-73
2021/11/24 07:00:55;;;;;;;19.13;12.27;;;7.50;99.90;;;;;;5082378;28;20025;-73
2021/11/24 07:03:21;;;;;;;19.50;12.57;;;7.50;99.90;;;;;;5081990;28;20020;-73
2021/11/24 07:05:47;;;;;;;22.27;13.85;;;7.40;99.90;;;;;;5061048;28;20120;-73
2021/11/24 07:08:12;;;;;;;22.52;13.68;;;7.40;99.90;;;;;;5080415;28;20029;-74
2021/11/24 07:10:38;;;;;;;22.20;13.57;;;7.50;99.90;;;;;;5082227;28;20024;-73
2021/11/24 07:13:04;;;;;;;23.00;15.00;;;7.50;99.90;;;;;;5084996;28;20039;-73
2021/11/24 07:15:30;;;;;;;23.02;13.93;;;7.50;99.90;;;;;;5088899;28;20107;-73
2021/11/24 07:17:56;;;;;;;22.25;13.40;;;7.50;99.90;;;;;;5093173;28;20107;-73
2021/11/24 07:20:22;;;;;;;25.77;15.43;;;7.50;99.90;;;;;;5067977;28;20043;-72
2021/11/24 07:22:48;;;;;;;21.50;13.63;;;7.50;99.90;;;;;;5068460;28;20116;-72
2021/11/24 07:25:14;;;;;;;24.50;13.73;;;7.50;99.90;;;;;;5081770;28;20078;-73
2021/11/24 07:27:40;;;;;;;21.90;13.55;;;7.50;99.90;;;;;;5083985;28;20020;-73
2021/11/24 07:30:07;;;;;;;19.05;11.95;;;7.50;99.90;;;;;;5090326;28;20314;-73
2021/11/24 07:32:33;;;;;;;21.85;12.18;;;7.50;99.90;;;;;;5078342;28;20032;-73
2021/11/24 07:35:01;;;;;;;26.08;14.95;;;7.50;99.90;;;;;;5071190;28;20043;-74
2021/11/24 07:37:28;;;;;;;23.83;14.18;;;7.50;99.90;;;;;;5092689;28;20039;-73
2021/11/24 07:39:54;;;;;;;22.50;13.73;;;7.50;99.90;;;;;;5064125;28;20020;-73
2021/11/24 07:42:19;;;;;;;23.02;13.85;;;7.50;99.90;;;;;;5085369;28;20409;-73
2021/11/24 07:44:45;;;;;;;24.70;14.48;;;7.50;99.90;;;;;;5086332;28;20029;-73
2021/11/24 07:47:12;;;;;;;22.20;13.30;;;7.50;99.90;;;;;;5081823;28;20028;-73
2021/11/24 07:49:38;;;;;;;20.88;12.48;;;7.50;99.90;;;;;;5076705;28;20524;-72
2021/11/24 07:52:05;;;;;;;20.13;12.63;;;7.50;99.90;;;;;;5071079;28;20448;-73
2021/11/24 07:54:31;;;;;;;19.27;11.52;;;7.50;99.90;;;;;;5084086;28;20022;-73
2021/11/24 07:56:57;;;;;;;20.98;13.52;;;7.50;99.90;;;;;;5081417;28;20033;-73
2021/11/24 07:59:23;;;;;;;19.33;12.32;;;7.50;99.90;;;;;;5077304;28;20405;-73
2021/11/24 08:01:49;;;;;;;18.73;11.48;;;7.50;99.90;;;;;;5082791;28;20026;-73
2021/11/24 08:04:16;;;;;;;18.05;11.85;;;7.50;99.90;;;;;;5065278;28;20031;-73
2021/11/24 08:06:42;;;;;;;18.33;11.55;;;7.60;99.90;;;;;;5082096;28;20056;-73
2021/11/24 08:09:08;;;;;;;22.35;12.70;;;7.50;99.90;;;;;;5081369;28;20021;-73
2021/11/24 08:11:35;;;;;;;19.23;12.75;;;7.50;99.90;;;;;;5084916;28;20028;-73
2021/11/24 08:14:01;;;;;;;21.30;11.45;;;7.60;99.90;;;;;;5086059;28;20079;-73
2021/11/24 08:16:27;;;;;;;18.27;12.02;;;7.60;99.90;;;;;;5083018;28;20509;-73
2021/11/24 08:18:53;;;;;;;20.08;11.85;;;7.60;99.90;;;;;;5066750;28;20028;-73
2021/11/24 08:21:19;;;;;;;17.58;11.18;;;7.60;99.90;;;;;;5081225;28;20096;-73
2021/11/24 08:23:45;;;;;;;20.38;11.98;;;7.70;99.90;;;;;;5080926;28;20028;-73
2021/11/24 08:26:11;;;;;;;20.08;12.27;;;7.60;99.90;;;;;;5078274;28;20025;-73
2021/11/24 08:28:37;;;;;;;18.58;11.38;;;7.60;99.90;;;;;;5078718;28;20093;-73
2021/11/24 08:31:03;;;;;;;24.10;12.65;;;7.60;99.90;;;;;;5078596;28;20379;-73
2021/11/24 08:33:29;;;;;;;19.73;11.48;;;7.60;99.90;;;;;;5079350;28;20538;-73
2021/11/24 08:35:55;;;;;;;20.35;12.93;;;7.60;99.90;;;;;;5080127;28;20093;-73
2021/11/24 08:38:20;;;;;;;24.08;12.50;;;7.70;99.90;;;;;;5082081;28;20028;-73
2021/11/24 08:40:46;;;;;;;18.80;12.50;;;7.70;99.90;;;;;;5078665;28;20485;-73
2021/11/24 08:43:13;;;;;;;20.88;12.50;;;7.70;99.90;;;;;;5080204;28;20544;-73
2021/11/24 08:45:38;;;;;;;21.70;12.43;;;7.70;99.90;;;;;;5080627;28;20096;-73
2021/11/24 08:48:05;;;;;;;19.65;12.38;;;7.70;99.90;;;;;;5079731;28;20474;-73
2021/11/24 08:50:31;;;;;;;22.75;12.63;;;7.70;99.90;;;;;;5076869;28;20029;-73
2021/11/24 08:52:57;;;;;;;22.65;12.98;;;7.70;99.90;;;;;;5064906;28;20028;-73
2021/11/24 08:55:23;;;;;;;23.20;13.02;;;7.60;99.90;;;;;;5078795;28;20504;-75
2021/11/24 08:57:49;;;;;;;22.05;13.10;;;7.70;99.90;;;;;;5076464;28;20119;-73
2021/11/24 09:00:17;;;;;;;23.48;13.38;;;7.60;99.90;;;;;;5065785;28;20027;-74
2021/11/24 09:02:44;;;;;;;25.75;13.23;;;7.60;99.90;;;;;;5080966;28;20021;-73
2021/11/24 09:05:13;;;;;;;21.77;13.23;;;7.70;99.90;;;;;;5079868;28;20342;-74
2021/11/24 09:07:40;;;;;;;21.35;12.57;;;7.70;99.90;;;;;;5081249;28;20628;-73
2021/11/24 09:10:06;;;;;;;28.17;13.93;;;7.70;99.90;;;;;;5078467;28;20035;-73
2021/11/24 09:12:32;;;;;;;22.48;13.27;;;7.70;99.90;;;;;;5077278;28;20436;-73
2021/11/24 09:14:58;;;;;;;24.20;13.18;;;7.70;99.90;;;;;;5080505;28;20028;-73
2021/11/24 09:17:24;;;;;;;20.15;11.88;;;7.80;99.90;;;;;;5079899;28;20267;-73
2021/11/24 09:19:50;;;;;;;25.10;13.77;;;7.80;99.90;;;;;;5079189;28;20035;-73
2021/11/24 09:22:17;;;;;;;21.02;12.77;;;7.80;99.90;;;;;;5077640;28;20051;-73
2021/11/24 09:24:43;;;;;;;22.48;12.10;;;7.90;99.90;;;;;;5081053;28;20017;-73
2021/11/24 09:27:16;;;;;;;18.13;11.63;;;7.90;99.90;;;;;;5063680;28;20505;-73
2021/11/24 09:29:43;;;;;;;19.52;11.70;;;8.00;99.90;;;;;;5060923;28;20067;-74
2021/11/24 09:32:10;;;;;;;21.25;12.55;;;8.10;99.90;;;;;;5076878;28;20028;-73
2021/11/24 09:34:36;;;;;;;21.80;12.32;;;8.10;99.90;;;;;;5079409;28;20070;-74
2021/11/24 09:37:02;;;;;;;21.15;13.57;;;8.20;99.90;;;;;;5077518;28;20581;-73
2021/11/24 09:39:27;;;;;;;18.95;11.65;;;8.20;99.90;;;;;;5082063;28;20029;-73
2021/11/24 09:41:57;;;;;;;23.15;12.63;;;8.20;99.90;;;;;;5080921;28;20032;-73
2021/11/24 09:44:23;;;;;;;21.02;12.57;;;8.20;99.90;;;;;;5074467;28;20478;-73
2021/11/24 09:46:51;;;;;;;23.23;12.75;;;8.20;99.90;;;;;;5080221;28;20020;-73
2021/11/24 09:49:18;;;;;;;22.15;12.10;;;8.20;99.90;;;;;;5081844;28;20470;-73
2021/11/24 09:51:45;;;;;;;22.10;11.98;;;8.10;99.90;;;;;;5080583;28;20024;-74
2021/11/24 09:54:14;;;;;;;19.00;11.45;;;8.30;99.90;;;;;;5079671;28;20028;-74
2021/11/24 09:56:41;;;;;;;22.15;12.90;;;8.30;99.90;;;;;;5077687;28;20065;-73
2021/11/24 09:59:11;;;;;;;18.48;11.73;;;8.40;99.90;;;;;;5079453;28;20180;-73
2021/11/24 10:01:41;;;;;;;22.65;12.90;;;8.50;99.90;;;;;;5062435;28;20028;-73
2021/11/24 10:04:08;;;;;;;20.50;11.80;;;8.40;99.90;;;;;;5076165;28;20024;-73
2021/11/24 10:06:35;;;;;;;19.83;12.18;;;8.40;99.90;;;;;;5078960;28;21200;-74
2021/11/24 10:09:02;;;;;;;21.25;12.98;;;8.40;99.90;;;;;;5078177;28;20093;-73
2021/11/24 10:11:29;;;;;;;20.13;11.40;;;8.30;99.90;;;;;;5078509;28;20043;-74
2021/11/24 10:13:55;;;;;;;22.00;12.43;;;8.30;99.90;;;;;;5083456;28;20045;-73
2021/11/24 10:16:29;;;;;;;17.98;11.85;;;8.30;99.90;;;;;;5079472;28;20035;-74
2021/11/24 10:19:03;;;;;;;20.35;11.90;;;8.50;99.90;;;;;;5076633;28;20024;-73
2021/11/24 10:21:29;;;;;;;19.65;11.23;;;8.40;99.90;;;;;;5077307;28;20020;-73
2021/11/24 10:24:00;;;;;;;19.13;10.98;;;8.40;99.90;;;;;;5079385;28;20486;-73
2021/11/24 10:26:34;;;;;;;16.88;10.68;;;8.40;99.90;;;;;;5075174;28;20608;-73
2021/11/24 10:29:01;;;;;;;17.65;10.25;;;8.40;99.90;;;;;;5079093;28;20474;-73
2021/11/24 10:31:32;;;;;;;16.17;10.25;;;8.40;99.90;;;;;;5080734;28;20474;-73
2021/11/24 10:33:59;;;;;;;16.80;10.35;;;8.40;99.90;;;;;;5078290;28;20090;-73
2021/11/24 10:36:25;;;;;;;17.67;11.18;;;8.40;99.90;;;;;;5076753;28;20106;-73
2021/11/24 10:38:53;;;;;;;17.42;10.90;;;8.50;99.90;;;;;;5085316;28;20383;-73
2021/11/24 10:41:37;;;;;;;14.75;9.75;;;8.40;99.90;;;;;;5081203;28;20413;-73
2021/11/24 10:44:04;;;;;;;15.18;10.43;;;8.40;99.90;;;;;;5085407;28;20095;-73
2021/11/24 10:46:31;;;;;;;16.15;9.30;;;8.40;99.90;;;;;;5080210;28;20504;-73
2021/11/24 10:49:07;;;;;;;17.63;10.32;;;8.40;99.90;;;;;;5087450;28;20371;-73
2021/11/24 10:51:42;;;;;;;15.15;9.13;;;8.40;99.90;;;;;;5070615;28;20056;-73
2021/11/24 10:54:15;;;;;;;13.48;8.65;;;8.50;99.90;;;;;;5070867;28;20162;-74
2021/11/24 10:57:05;;;;;;;19.45;10.32;;;8.60;99.90;;;;;;5084847;28;20032;-73
2021/11/24 10:59:34;;;;;;;17.27;9.88;;;8.60;99.90;;;;;;5090235;28;20057;-73
2021/11/24 11:02:21;;;;;;;15.43;8.85;;;8.50;99.90;;;;;;5083624;28;20065;-73
2021/11/24 11:04:59;;;;;;;14.25;8.70;;;8.50;99.90;;;;;;5071960;28;20028;-72
2021/11/24 11:07:27;;;;;;;13.82;8.93;;;8.60;99.90;;;;;;5068559;28;20447;-73
2021/11/24 11:10:09;;;;;;;13.60;7.82;;;8.70;99.90;;;;;;5081439;28;20104;-73
2021/11/24 11:12:37;;;;;;;11.65;7.85;;;8.80;99.90;;;;;;5089307;28;20548;-73
2021/11/24 11:15:23;;;;;;;12.07;7.68;;;8.80;99.90;;;;;;5081396;28;20028;-73
2021/11/24 11:17:57;;;;;;;12.38;7.13;;;8.80;99.90;;;;;;5081638;28;20490;-73
2021/11/24 11:20:26;;;;;;;13.60;7.10;;;8.80;99.90;;;;;;5079995;28;20068;-74
2021/11/24 11:23:18;;;;;;;13.60;7.40;;;8.90;99.90;;;;;;5077103;28;20103;-73
2021/11/24 11:25:57;;;;;;;11.60;7.68;;;8.90;99.90;;;;;;5086510;28;20028;-73
2021/11/24 11:28:26;;;;;;;10.63;6.78;;;9.00;99.90;;;;;;5085764;28;20539;-73
2021/11/24 11:30:55;;;;;;;11.50;6.78;;;9.00;99.90;;;;;;5068894;28;20060;-73
2021/11/24 11:33:27;;;;;;;10.82;6.47;;;8.90;99.90;;;;;;5083188;28;20032;-73
2021/11/24 11:35:53;;;;;;;11.73;6.93;;;8.90;99.90;;;;;;5074203;28;20039;-73
2021/11/24 11:38:21;;;;;;;11.00;5.50;;;8.80;99.90;;;;;;5078245;28;20029;-73
2021/11/24 11:40:51;;;;;;;11.63;6.13;;;8.80;99.90;;;;;;5079248;28;20044;-73
2021/11/24 11:43:19;;;;;;;10.05;5.40;;;8.70;99.90;;;;;;5084321;28;20024;-73
2021/11/24 11:45:45;;;;;;;7.30;4.32;;;8.70;99.90;;;;;;5083008;28;20025;-74
2021/11/24 11:48:11;;;;;;;10.63;5.45;;;8.70;99.90;;;;;;5079115;28;20077;-73
2021/11/24 11:51:02;;;;;;;8.55;5.70;;;8.70;99.90;;;;;;5069761;28;20036;-73
2021/11/24 11:53:46;;;;;;;11.85;5.13;;;8.60;99.90;;;;;;5082695;28;20028;-73
2021/11/24 11:56:18;;;;;;;9.38;5.70;;;8.70;99.90;;;;;;5083529;28;20490;-73
2021/11/24 11:59:07;;;;;;;7.93;5.05;;;8.70;99.90;;;;;;5077407;28;20036;-73
2021/11/24 12:01:57;;;;;;;10.02;5.85;;;8.70;99.90;;;;;;5066723;28;20040;-73
2021/11/24 12:04:26;;;;;;;9.82;6.80;;;8.70;99.90;;;;;;5080827;28;20074;-73
2021/11/24 12:06:52;;;;;;;10.98;6.70;;;8.60;99.90;;;;;;5074320;28;20029;-73
2021/11/24 12:09:28;;;;;;;14.88;7.13;;;8.60;99.90;;;;;;5081225;28;20127;-73
2021/11/24 12:12:12;;;;;;;12.27;7.35;;;8.60;99.90;;;;;;5081255;28;20509;-73
2021/11/24 12:14:43;;;;;;;14.30;8.57;;;8.60;99.90;;;;;;5088701;28;20098;-73
2021/11/24 12:17:33;;;;;;;12.77;8.48;;;8.60;99.90;;;;;;5086479;28;20415;-73
2021/11/24 12:20:14;;;;;;;13.18;7.32;;;8.50;99.90;;;;;;5089303;28;20032;-74
2021/11/24 12:25:18;;;;;;;12.38;7.53;;;8.50;99.90;;;;;;5084523;28;20040;-73
2021/11/24 12:27:50;;;;;;;14.02;8.85;;;8.50;99.90;;;;;;5075132;28;20102;-73
2021/11/24 12:33:07;;;;;;;10.25;6.90;;;8.60;99.90;;;;;;5083936;28;20070;-72
2021/11/24 12:35:37;;;;;;;12.30;7.63;;;8.60;99.90;;;;;;5078186;28;20090;-72
2021/11/24 12:38:04;;;;;;;10.93;7.65;;;8.60;99.90;;;;;;5087419;28;20046;-72
2021/11/24 12:40:36;;;;;;;12.65;7.00;;;8.70;99.90;;;;;;5080458;28;20063;-73
2021/11/24 12:43:15;;;;;;;12.40;7.03;;;8.60;99.90;;;;;;5069301;28;20024;-71
2021/11/24 12:45:41;;;;;;;11.43;6.72;;;8.60;99.90;;;;;;5081557;28;20389;-74
2021/11/24 12:48:08;;;;;;;11.35;6.80;;;8.60;99.90;;;;;;5081002;28;20078;-72